sensor_id;sensor_type;location;lat;lon;timestamp;pressure;altitude;pressure_sealevel;temperature;humidity
63665;BME280;49820;33.966;73.390;2023-06-26T01:56:54;78579.16;;;15.30;100.00
63665;BME280;49820;33.966;73.390;2023-06-26T01:59:26;78602.09;;;15.77;100.00
63665;BME280;49820;33.966;73.390;2023-06-26T02:01:56;78598.19;;;15.74;100.00
63665;BME280;49820;33.966;73.390;2023-06-26T02:04:27;78631.25;;;16.04;100.00
63665;BME280;49820;33.966;73.390;2023-06-26T02:06:56;78605.88;;;15.99;100.00
63665;BME280;49820;33.966;73.390;2023-06-26T02:09:28;78622.25;;;16.10;100.00
63665;BME280;49820;33.966;73.390;2023-06-26T02:11:57;78630.94;;;16.27;100.00
63665;BME280;49820;33.966;73.390;2023-06-26T02:14:26;78632.34;;;16.26;100.00
63665;BME280;49820;33.966;73.390;2023-06-26T02:16:56;78621.56;;;16.40;100.00
63665;BME280;49820;33.966;73.390;2023-06-26T02:19:26;78641.34;;;16.81;100.00
63665;BME280;49820;33.966;73.390;2023-06-26T02:21:58;78620.34;;;16.69;100.00
63665;BME280;49820;33.966;73.390;2023-06-26T02:24:27;78652.34;;;16.92;100.00
63665;BME280;49820;33.966;73.390;2023-06-26T02:27:00;78645.25;;;17.13;100.00
63665;BME280;49820;33.966;73.390;2023-06-26T02:29:29;78639.97;;;17.26;100.00
63665;BME280;49820;33.966;73.390;2023-06-26T02:31:59;78650.66;;;17.43;100.00
63665;BME280;49820;33.966;73.390;2023-06-26T02:34:28;78628.44;;;17.70;100.00
63665;BME280;49820;33.966;73.390;2023-06-26T02:37:01;78647.91;;;17.72;100.00
63665;BME280;49820;33.966;73.390;2023-06-26T02:39:30;78648.34;;;18.19;100.00
63665;BME280;49820;33.966;73.390;2023-06-26T02:41:59;78639.88;;;18.40;100.00
63665;BME280;49820;33.966;73.390;2023-06-26T02:44:28;78651.44;;;18.38;100.00
63665;BME280;49820;33.966;73.390;2023-06-26T02:46:57;78673.09;;;18.78;100.00
63665;BME280;49820;33.966;73.390;2023-06-26T02:49:26;78663.69;;;18.90;100.00
63665;BME280;49820;33.966;73.390;2023-06-26T02:51:56;78653.31;;;18.94;100.00
63665;BME280;49820;33.966;73.390;2023-06-26T02:54:27;78653.09;;;18.98;100.00
63665;BME280;49820;33.966;73.390;2023-06-26T02:57:02;78671.44;;;19.36;100.00
63665;BME280;49820;33.966;73.390;2023-06-26T02:59:33;78644.56;;;19.44;100.00
63665;BME280;49820;33.966;73.390;2023-06-26T03:02:02;78642.63;;;19.56;100.00
63665;BME280;49820;33.966;73.390;2023-06-26T03:04:39;78666.75;;;20.10;100.00
63665;BME280;49820;33.966;73.390;2023-06-26T03:07:10;78684.56;;;20.43;100.00
63665;BME280;49820;33.966;73.390;2023-06-26T03:09:41;78688.56;;;20.57;100.00
63665;BME280;49820;33.966;73.390;2023-06-26T03:12:12;78684.47;;;20.45;100.00
63665;BME280;49820;33.966;73.390;2023-06-26T03:14:43;78665.00;;;20.05;100.00
63665;BME280;49820;33.966;73.390;2023-06-26T03:17:14;78671.97;;;19.89;100.00
63665;BME280;49820;33.966;73.390;2023-06-26T03:19:46;78671.75;;;19.93;100.00
63665;BME280;49820;33.966;73.390;2023-06-26T03:22:21;78659.41;;;19.84;100.00
63665;BME280;49820;33.966;73.390;2023-06-26T03:24:50;78680.19;;;20.12;100.00
63665;BME280;49820;33.966;73.390;2023-06-26T03:27:19;78684.41;;;20.22;100.00
63665;BME280;49820;33.966;73.390;2023-06-26T03:29:49;78686.47;;;20.34;100.00
63665;BME280;49820;33.966;73.390;2023-06-26T03:32:20;78682.06;;;20.52;100.00
63665;BME280;49820;33.966;73.390;2023-06-26T03:34:49;78665.34;;;20.47;100.00
63665;BME280;49820;33.966;73.390;2023-06-26T03:37:19;78666.59;;;20.61;100.00
63665;BME280;49820;33.966;73.390;2023-06-26T03:39:51;78677.44;;;20.74;100.00
63665;BME280;49820;33.966;73.390;2023-06-26T03:42:21;78681.28;;;20.89;100.00
63665;BME280;49820;33.966;73.390;2023-06-26T03:44:51;78684.88;;;20.86;100.00
63665;BME280;49820;33.966;73.390;2023-06-26T03:47:21;78687.84;;;21.05;100.00
63665;BME280;49820;33.966;73.390;2023-06-26T03:49:50;78689.34;;;21.02;100.00
63665;BME280;49820;33.966;73.390;2023-06-26T03:52:19;78699.44;;;21.50;100.00
63665;BME280;49820;33.966;73.390;2023-06-26T03:54:49;78687.91;;;21.39;100.00
63665;BME280;49820;33.966;73.390;2023-06-26T03:57:19;78674.66;;;21.67;100.00
63665;BME280;49820;33.966;73.390;2023-06-26T03:59:49;78688.13;;;22.03;100.00
63665;BME280;49820;33.966;73.390;2023-06-26T04:02:18;78697.00;;;21.91;100.00
63665;BME280;49820;33.966;73.390;2023-06-26T04:04:46;78694.75;;;22.06;100.00
63665;BME280;49820;33.966;73.390;2023-06-26T04:07:18;78694.38;;;22.23;100.00
63665;BME280;49820;33.966;73.390;2023-06-26T04:09:49;78697.91;;;22.21;100.00
63665;BME280;49820;33.966;73.390;2023-06-26T04:12:18;78700.34;;;22.15;100.00
63665;BME280;49820;33.966;73.390;2023-06-26T04:14:47;78677.41;;;22.22;100.00
63665;BME280;49820;33.966;73.390;2023-06-26T04:17:16;78679.25;;;22.36;100.00
63665;BME280;49820;33.966;73.390;2023-06-26T04:19:47;78699.22;;;22.54;100.00
63665;BME280;49820;33.966;73.390;2023-06-26T04:22:15;78663.19;;;22.64;100.00
63665;BME280;49820;33.966;73.390;2023-06-26T04:24:45;78682.09;;;23.41;100.00
63665;BME280;49820;33.966;73.390;2023-06-26T04:27:14;78658.38;;;23.80;100.00
63665;BME280;49820;33.966;73.390;2023-06-26T04:29:44;78681.03;;;23.98;100.00
63665;BME280;49820;33.966;73.390;2023-06-26T04:32:13;78649.25;;;24.62;100.00
63665;BME280;49820;33.966;73.390;2023-06-26T04:34:42;78649.59;;;23.99;100.00
63665;BME280;49820;33.966;73.390;2023-06-26T04:37:13;78669.25;;;23.50;100.00
63665;BME280;49820;33.966;73.390;2023-06-26T04:39:47;78671.63;;;23.13;100.00
63665;BME280;49820;33.966;73.390;2023-06-26T04:42:17;78666.31;;;22.90;100.00
63665;BME280;49820;33.966;73.390;2023-06-26T04:44:47;78626.63;;;22.40;100.00
63665;BME280;49820;33.966;73.390;2023-06-26T04:47:16;78620.94;;;22.44;100.00
63665;BME280;49820;33.966;73.390;2023-06-26T04:49:45;78647.50;;;22.43;100.00
63665;BME280;49820;33.966;73.390;2023-06-26T04:52:14;78643.22;;;22.36;100.00
63665;BME280;49820;33.966;73.390;2023-06-26T04:54:43;78638.69;;;22.54;100.00
63665;BME280;49820;33.966;73.390;2023-06-26T04:57:12;78645.41;;;22.55;100.00
63665;BME280;49820;33.966;73.390;2023-06-26T04:59:41;78635.97;;;22.64;100.00
63665;BME280;49820;33.966;73.390;2023-06-26T05:02:10;78618.47;;;22.40;100.00
63665;BME280;49820;33.966;73.390;2023-06-26T05:04:43;78633.50;;;22.50;100.00
63665;BME280;49820;33.966;73.390;2023-06-26T05:07:12;78639.09;;;22.37;100.00
63665;BME280;49820;33.966;73.390;2023-06-26T05:09:42;78618.44;;;22.08;100.00
63665;BME280;49820;33.966;73.390;2023-06-26T05:12:11;78623.75;;;21.99;100.00
63665;BME280;49820;33.966;73.390;2023-06-26T05:14:46;78667.84;;;22.55;100.00
63665;BME280;49820;33.966;73.390;2023-06-26T05:17:18;78666.75;;;23.35;100.00
63665;BME280;49820;33.966;73.390;2023-06-26T05:19:50;78621.19;;;22.82;100.00
63665;BME280;49820;33.966;73.390;2023-06-26T05:22:26;78615.72;;;22.93;100.00
63665;BME280;49820;33.966;73.390;2023-06-26T05:24:58;78657.03;;;23.28;100.00
63665;BME280;49820;33.966;73.390;2023-06-26T05:27:38;78649.38;;;23.41;100.00
63665;BME280;49820;33.966;73.390;2023-06-26T05:30:08;78641.75;;;23.11;100.00
63665;BME280;49820;33.966;73.390;2023-06-26T05:32:38;78654.44;;;23.36;100.00
63665;BME280;49820;33.966;73.390;2023-06-26T05:35:09;78628.81;;;23.63;100.00
63665;BME280;49820;33.966;73.390;2023-06-26T05:37:41;78663.00;;;23.41;100.00
63665;BME280;49820;33.966;73.390;2023-06-26T05:40:11;78642.84;;;23.98;100.00
63665;BME280;49820;33.966;73.390;2023-06-26T05:42:48;78649.63;;;23.47;77.65
63665;BME280;49820;33.966;73.390;2023-06-26T05:45:17;78622.25;;;23.49;100.00
63665;BME280;49820;33.966;73.390;2023-06-26T05:47:48;78665.44;;;23.66;100.00
63665;BME280;49820;33.966;73.390;2023-06-26T05:50:19;78661.91;;;23.06;100.00
63665;BME280;49820;33.966;73.390;2023-06-26T05:52:49;78668.75;;;22.73;100.00
63665;BME280;49820;33.966;73.390;2023-06-26T05:55:18;78657.78;;;22.86;75.70
63665;BME280;49820;33.966;73.390;2023-06-26T05:57:50;78648.91;;;22.32;85.92
63665;BME280;49820;33.966;73.390;2023-06-26T06:00:20;78644.53;;;22.37;92.57
63665;BME280;49820;33.966;73.390;2023-06-26T06:02:49;78669.97;;;22.76;92.09
63665;BME280;49820;33.966;73.390;2023-06-26T06:05:22;78677.09;;;22.92;98.90
63665;BME280;49820;33.966;73.390;2023-06-26T06:07:51;78665.25;;;22.64;90.98
63665;BME280;49820;33.966;73.390;2023-06-26T06:10:20;78680.72;;;22.89;88.66
63665;BME280;49820;33.966;73.390;2023-06-26T06:12:50;78672.94;;;22.82;90.88
63665;BME280;49820;33.966;73.390;2023-06-26T06:15:20;78680.47;;;22.82;97.65
63665;BME280;49820;33.966;73.390;2023-06-26T06:17:51;78667.09;;;22.67;100.00
63665;BME280;49820;33.966;73.390;2023-06-26T06:20:20;78659.81;;;22.42;99.41
63665;BME280;49820;33.966;73.390;2023-06-26T06:22:50;78665.13;;;22.34;98.24
63665;BME280;49820;33.966;73.390;2023-06-26T06:25:19;78663.25;;;21.98;100.00
63665;BME280;49820;33.966;73.390;2023-06-26T06:27:51;78648.50;;;22.17;100.00
63665;BME280;49820;33.966;73.390;2023-06-26T06:30:19;78662.03;;;23.04;100.00
63665;BME280;49820;33.966;73.390;2023-06-26T06:33:11;78673.31;;;22.98;100.00
63665;BME280;49820;33.966;73.390;2023-06-26T06:35:39;78676.69;;;22.88;100.00
63665;BME280;49820;33.966;73.390;2023-06-26T06:38:11;78669.28;;;23.18;100.00
63665;BME280;49820;33.966;73.390;2023-06-26T06:40:41;78668.28;;;23.02;100.00
63665;BME280;49820;33.966;73.390;2023-06-26T06:43:10;78662.16;;;22.59;100.00
63665;BME280;49820;33.966;73.390;2023-06-26T06:45:38;78680.44;;;21.95;100.00
63665;BME280;49820;33.966;73.390;2023-06-26T06:48:08;78693.41;;;21.60;100.00
63665;BME280;49820;33.966;73.390;2023-06-26T06:50:37;78693.91;;;21.52;100.00
63665;BME280;49820;33.966;73.390;2023-06-26T06:53:07;78683.13;;;21.50;100.00
63665;BME280;49820;33.966;73.390;2023-06-26T06:55:36;78681.75;;;21.05;100.00
63665;BME280;49820;33.966;73.390;2023-06-26T06:58:05;78682.69;;;20.52;100.00
63665;BME280;49820;33.966;73.390;2023-06-26T07:00:35;78679.22;;;20.54;100.00
63665;BME280;49820;33.966;73.390;2023-06-26T07:03:04;78682.22;;;20.37;100.00
63665;BME280;49820;33.966;73.390;2023-06-26T07:05:34;78664.22;;;20.19;100.00
63665;BME280;49820;33.966;73.390;2023-06-26T07:08:03;78687.75;;;20.35;100.00
63665;BME280;49820;33.966;73.390;2023-06-26T07:10:32;78670.28;;;20.19;100.00
63665;BME280;49820;33.966;73.390;2023-06-26T07:13:01;78683.28;;;20.42;100.00
63665;BME280;49820;33.966;73.390;2023-06-26T07:15:33;78689.78;;;20.83;100.00
63665;BME280;49820;33.966;73.390;2023-06-26T07:18:02;78688.47;;;20.59;100.00
63665;BME280;49820;33.966;73.390;2023-06-26T07:20:31;78664.38;;;20.76;100.00
63665;BME280;49820;33.966;73.390;2023-06-26T07:23:00;78673.69;;;20.56;100.00
63665;BME280;49820;33.966;73.390;2023-06-26T07:25:29;78664.66;;;20.11;100.00
63665;BME280;49820;33.966;73.390;2023-06-26T07:27:59;78661.13;;;19.89;100.00
63665;BME280;49820;33.966;73.390;2023-06-26T07:30:27;78667.50;;;19.96;100.00
63665;BME280;49820;33.966;73.390;2023-06-26T07:33:05;78672.69;;;20.26;100.00
63665;BME280;49820;33.966;73.390;2023-06-26T07:35:35;78664.66;;;20.11;100.00
63665;BME280;49820;33.966;73.390;2023-06-26T07:38:04;78652.38;;;19.76;100.00
63665;BME280;49820;33.966;73.390;2023-06-26T07:40:33;78642.84;;;19.64;100.00
63665;BME280;49820;33.966;73.390;2023-06-26T07:43:02;78653.47;;;19.68;100.00
63665;BME280;49820;33.966;73.390;2023-06-26T07:45:31;78658.53;;;19.87;100.00
63665;BME280;49820;33.966;73.390;2023-06-26T07:48:05;78673.84;;;19.67;100.00
63665;BME280;49820;33.966;73.390;2023-06-26T07:50:35;78628.66;;;19.13;100.00
63665;BME280;49820;33.966;73.390;2023-06-26T07:53:05;78671.25;;;19.53;100.00
63665;BME280;49820;33.966;73.390;2023-06-26T07:55:34;78667.75;;;19.41;100.00
63665;BME280;49820;33.966;73.390;2023-06-26T07:58:02;78667.34;;;19.37;100.00
63665;BME280;49820;33.966;73.390;2023-06-26T08:00:31;78662.53;;;19.25;100.00
63665;BME280;49820;33.966;73.390;2023-06-26T08:03:07;78674.25;;;19.47;100.00
63665;BME280;49820;33.966;73.390;2023-06-26T08:05:45;78645.75;;;19.73;100.00
63665;BME280;49820;33.966;73.390;2023-06-26T08:08:15;78664.75;;;20.22;100.00
63665;BME280;49820;33.966;73.390;2023-06-26T08:10:45;78658.13;;;20.31;100.00
63665;BME280;49820;33.966;73.390;2023-06-26T08:13:17;78656.72;;;20.91;100.00
63665;BME280;49820;33.966;73.390;2023-06-26T08:15:47;78662.28;;;22.57;100.00
63665;BME280;49820;33.966;73.390;2023-06-26T08:18:15;78654.47;;;21.75;100.00
63665;BME280;49820;33.966;73.390;2023-06-26T08:20:45;78662.06;;;21.95;100.00
63665;BME280;49820;33.966;73.390;2023-06-26T08:23:14;78650.41;;;23.35;100.00
63665;BME280;49820;33.966;73.390;2023-06-26T08:25:44;78645.94;;;22.89;100.00
63665;BME280;49820;33.966;73.390;2023-06-26T08:28:12;78658.03;;;21.94;100.00
63665;BME280;49820;33.966;73.390;2023-06-26T08:30:43;78639.47;;;22.20;100.00
63665;BME280;49820;33.966;73.390;2023-06-26T08:33:12;78641.91;;;22.56;100.00
63665;BME280;49820;33.966;73.390;2023-06-26T08:35:41;78642.06;;;22.43;100.00
63665;BME280;49820;33.966;73.390;2023-06-26T08:38:11;78660.03;;;22.06;100.00
63665;BME280;49820;33.966;73.390;2023-06-26T08:40:48;78653.94;;;22.06;100.00
63665;BME280;49820;33.966;73.390;2023-06-26T08:43:17;78641.44;;;22.86;100.00
63665;BME280;49820;33.966;73.390;2023-06-26T08:45:48;78635.72;;;23.51;100.00
63665;BME280;49820;33.966;73.390;2023-06-26T08:48:21;78645.84;;;22.80;100.00
63665;BME280;49820;33.966;73.390;2023-06-26T08:50:53;78646.72;;;22.56;100.00
63665;BME280;49820;33.966;73.390;2023-06-26T08:53:29;78622.47;;;22.41;100.00
63665;BME280;49820;33.966;73.390;2023-06-26T08:56:02;78641.13;;;22.47;100.00
63665;BME280;49820;33.966;73.390;2023-06-26T08:58:32;78631.53;;;22.16;100.00
63665;BME280;49820;33.966;73.390;2023-06-26T09:01:01;78621.91;;;21.96;100.00
63665;BME280;49820;33.966;73.390;2023-06-26T09:03:32;78643.44;;;22.00;100.00
63665;BME280;49820;33.966;73.390;2023-06-26T09:06:01;78608.78;;;21.32;100.00
63665;BME280;49820;33.966;73.390;2023-06-26T09:08:30;78633.56;;;21.50;100.00
63665;BME280;49820;33.966;73.390;2023-06-26T09:11:00;78626.38;;;21.23;100.00
63665;BME280;49820;33.966;73.390;2023-06-26T09:13:30;78627.00;;;21.23;100.00
63665;BME280;49820;33.966;73.390;2023-06-26T09:15:59;78573.31;;;20.90;100.00
63665;BME280;49820;33.966;73.390;2023-06-26T09:18:28;78610.09;;;21.10;100.00
63665;BME280;49820;33.966;73.390;2023-06-26T09:20:57;78604.97;;;20.83;100.00
63665;BME280;49820;33.966;73.390;2023-06-26T09:23:26;78593.31;;;20.84;100.00
63665;BME280;49820;33.966;73.390;2023-06-26T09:25:55;78602.69;;;20.51;100.00
63665;BME280;49820;33.966;73.390;2023-06-26T09:28:25;78595.84;;;20.76;100.00
63665;BME280;49820;33.966;73.390;2023-06-26T09:30:54;78583.66;;;20.64;100.00
63665;BME280;49820;33.966;73.390;2023-06-26T09:33:24;78602.47;;;20.79;100.00
63665;BME280;49820;33.966;73.390;2023-06-26T09:35:53;78588.06;;;20.70;100.00
63665;BME280;49820;33.966;73.390;2023-06-26T09:38:22;78581.22;;;20.47;100.00
63665;BME280;49820;33.966;73.390;2023-06-26T09:40:51;78558.94;;;20.34;100.00
63665;BME280;49820;33.966;73.390;2023-06-26T09:43:20;78575.25;;;20.68;100.00
63665;BME280;49820;33.966;73.390;2023-06-26T09:45:48;78574.06;;;20.88;100.00
63665;BME280;49820;33.966;73.390;2023-06-26T09:48:19;78575.13;;;20.93;100.00
63665;BME280;49820;33.966;73.390;2023-06-26T09:50:47;78562.09;;;20.73;100.00
63665;BME280;49820;33.966;73.390;2023-06-26T09:53:36;78571.38;;;20.65;100.00
63665;BME280;49820;33.966;73.390;2023-06-26T09:56:06;78568.38;;;20.59;100.00
63665;BME280;49820;33.966;73.390;2023-06-26T09:58:36;78563.19;;;20.54;100.00
63665;BME280;49820;33.966;73.390;2023-06-26T10:01:06;78548.75;;;20.35;100.00
63665;BME280;49820;33.966;73.390;2023-06-26T10:03:36;78565.00;;;20.58;100.00
63665;BME280;49820;33.966;73.390;2023-06-26T10:06:07;78559.63;;;20.69;100.00
63665;BME280;49820;33.966;73.390;2023-06-26T10:08:39;78558.31;;;21.25;100.00
63665;BME280;49820;33.966;73.390;2023-06-26T10:11:11;78555.59;;;22.33;100.00
63665;BME280;49820;33.966;73.390;2023-06-26T10:13:42;78544.97;;;23.12;100.00
63665;BME280;49820;33.966;73.390;2023-06-26T10:16:21;78533.47;;;23.31;100.00
63665;BME280;49820;33.966;73.390;2023-06-26T10:18:53;78545.84;;;22.47;100.00
63665;BME280;49820;33.966;73.390;2023-06-26T10:21:26;78530.22;;;22.16;100.00
63665;BME280;49820;33.966;73.390;2023-06-26T10:23:58;78541.03;;;22.79;100.00
63665;BME280;49820;33.966;73.390;2023-06-26T10:26:28;78534.31;;;22.57;100.00
63665;BME280;49820;33.966;73.390;2023-06-26T10:28:58;78523.84;;;22.40;100.00
63665;BME280;49820;33.966;73.390;2023-06-26T10:31:29;78525.88;;;22.61;100.00
63665;BME280;49820;33.966;73.390;2023-06-26T10:33:58;78535.31;;;22.73;100.00
63665;BME280;49820;33.966;73.390;2023-06-26T10:36:30;78531.44;;;22.70;100.00
63665;BME280;49820;33.966;73.390;2023-06-26T10:39:04;78531.09;;;23.06;100.00
63665;BME280;49820;33.966;73.390;2023-06-26T10:41:38;78532.09;;;22.81;100.00
63665;BME280;49820;33.966;73.390;2023-06-26T10:44:27;78511.44;;;22.01;100.00
63665;BME280;49820;33.966;73.390;2023-06-26T10:46:56;78486.28;;;21.47;100.00
63665;BME280;49820;33.966;73.390;2023-06-26T10:49:30;78519.94;;;21.63;100.00
63665;BME280;49820;33.966;73.390;2023-06-26T10:52:01;78518.38;;;21.45;100.00
63665;BME280;49820;33.966;73.390;2023-06-26T10:54:32;78525.53;;;21.72;100.00
63665;BME280;49820;33.966;73.390;2023-06-26T10:57:02;78511.41;;;22.43;100.00
63665;BME280;49820;33.966;73.390;2023-06-26T10:59:31;78523.53;;;23.47;100.00
63665;BME280;49820;33.966;73.390;2023-06-26T11:02:04;78520.00;;;23.59;100.00
63665;BME280;49820;33.966;73.390;2023-06-26T11:04:45;78525.75;;;23.44;100.00
63665;BME280;49820;33.966;73.390;2023-06-26T11:07:23;78523.00;;;22.85;100.00
63665;BME280;49820;33.966;73.390;2023-06-26T11:12:43;78523.69;;;21.68;100.00
63665;BME280;49820;33.966;73.390;2023-06-26T11:15:14;78530.94;;;21.50;100.00
63665;BME280;49820;33.966;73.390;2023-06-26T11:17:44;78533.63;;;21.40;100.00
63665;BME280;49820;33.966;73.390;2023-06-26T11:20:15;78506.56;;;20.93;100.00
63665;BME280;49820;33.966;73.390;2023-06-26T11:22:52;78513.13;;;20.75;100.00
63665;BME280;49820;33.966;73.390;2023-06-26T11:25:21;78517.41;;;20.82;100.00
63665;BME280;49820;33.966;73.390;2023-06-26T11:27:53;78518.63;;;21.51;100.00
63665;BME280;49820;33.966;73.390;2023-06-26T11:30:24;78497.31;;;21.98;100.00
63665;BME280;49820;33.966;73.390;2023-06-26T11:32:53;78475.41;;;22.00;100.00
63665;BME280;49820;33.966;73.390;2023-06-26T11:35:25;78501.38;;;21.33;100.00
63665;BME280;49820;33.966;73.390;2023-06-26T11:38:02;78460.84;;;20.64;100.00
63665;BME280;49820;33.966;73.390;2023-06-26T11:40:37;78501.66;;;20.51;100.00
63665;BME280;49820;33.966;73.390;2023-06-26T11:43:06;78491.09;;;20.11;100.00
63665;BME280;49820;33.966;73.390;2023-06-26T11:45:37;78512.44;;;20.17;100.00
63665;BME280;49820;33.966;73.390;2023-06-26T11:48:06;78482.56;;;19.83;100.00
63665;BME280;49820;33.966;73.390;2023-06-26T11:50:37;78503.78;;;19.91;100.00
63665;BME280;49820;33.966;73.390;2023-06-26T11:53:07;78491.13;;;19.52;100.00
63665;BME280;49820;33.966;73.390;2023-06-26T11:55:41;78503.91;;;19.40;100.00
63665;BME280;49820;33.966;73.390;2023-06-26T11:58:11;78493.22;;;19.26;100.00
63665;BME280;49820;33.966;73.390;2023-06-26T12:00:43;78492.25;;;19.19;100.00
63665;BME280;49820;33.966;73.390;2023-06-26T12:03:12;78488.59;;;19.12;100.00
63665;BME280;49820;33.966;73.390;2023-06-26T12:05:41;78490.22;;;19.06;100.00
63665;BME280;49820;33.966;73.390;2023-06-26T12:08:13;78453.78;;;18.67;100.00
63665;BME280;49820;33.966;73.390;2023-06-26T12:10:42;78494.47;;;18.91;100.00
63665;BME280;49820;33.966;73.390;2023-06-26T12:13:11;78455.38;;;18.75;100.00
63665;BME280;49820;33.966;73.390;2023-06-26T12:15:41;78477.47;;;18.92;100.00
63665;BME280;49820;33.966;73.390;2023-06-26T12:18:10;78495.22;;;18.89;100.00
63665;BME280;49820;33.966;73.390;2023-06-26T12:20:40;78477.69;;;18.76;100.00
63665;BME280;49820;33.966;73.390;2023-06-26T12:23:13;78487.00;;;18.79;100.00
63665;BME280;49820;33.966;73.390;2023-06-26T12:25:42;78495.09;;;18.91;100.00
63665;BME280;49820;33.966;73.390;2023-06-26T12:28:18;78505.19;;;18.80;100.00
63665;BME280;49820;33.966;73.390;2023-06-26T12:31:11;78509.84;;;18.82;100.00
63665;BME280;49820;33.966;73.390;2023-06-26T12:33:37;78424.22;;;18.25;100.00
63665;BME280;49820;33.966;73.390;2023-06-26T12:36:13;78501.16;;;18.92;100.00
63665;BME280;49820;33.966;73.390;2023-06-26T12:38:47;78485.50;;;18.69;100.00
63665;BME280;49820;33.966;73.390;2023-06-26T12:41:17;78498.34;;;18.81;100.00
63665;BME280;49820;33.966;73.390;2023-06-26T12:43:48;78480.28;;;18.65;100.00
63665;BME280;49820;33.966;73.390;2023-06-26T12:46:17;78512.44;;;18.84;100.00
63665;BME280;49820;33.966;73.390;2023-06-26T12:48:46;78490.59;;;18.62;100.00
63665;BME280;49820;33.966;73.390;2023-06-26T12:51:16;78519.03;;;18.74;100.00
63665;BME280;49820;33.966;73.390;2023-06-26T12:53:46;78494.38;;;18.67;100.00
63665;BME280;49820;33.966;73.390;2023-06-26T12:56:15;78494.03;;;18.74;100.00
63665;BME280;49820;33.966;73.390;2023-06-26T12:58:44;78482.88;;;18.54;100.00
63665;BME280;49820;33.966;73.390;2023-06-26T13:01:13;78471.84;;;18.46;100.00
63665;BME280;49820;33.966;73.390;2023-06-26T13:03:43;78457.97;;;18.26;100.00
63665;BME280;49820;33.966;73.390;2023-06-26T13:06:12;78484.38;;;18.51;100.00
63665;BME280;49820;33.966;73.390;2023-06-26T13:08:42;78482.03;;;18.58;100.00
63665;BME280;49820;33.966;73.390;2023-06-26T13:11:11;78484.53;;;18.62;100.00
63665;BME280;49820;33.966;73.390;2023-06-26T13:13:40;78486.69;;;18.59;100.00
63665;BME280;49820;33.966;73.390;2023-06-26T13:16:12;78518.94;;;18.63;100.00
63665;BME280;49820;33.966;73.390;2023-06-26T13:18:42;78510.69;;;18.53;100.00
63665;BME280;49820;33.966;73.390;2023-06-26T13:21:11;78511.53;;;18.49;100.00
63665;BME280;49820;33.966;73.390;2023-06-26T13:23:40;78493.03;;;18.16;100.00
63665;BME280;49820;33.966;73.390;2023-06-26T13:26:10;78526.56;;;18.34;100.00
63665;BME280;49820;33.966;73.390;2023-06-26T13:28:59;78526.69;;;18.32;100.00
63665;BME280;49820;33.966;73.390;2023-06-26T13:31:28;78522.22;;;18.26;100.00
63665;BME280;49820;33.966;73.390;2023-06-26T13:33:58;78523.19;;;18.20;100.00
63665;BME280;49820;33.966;73.390;2023-06-26T13:36:27;78514.31;;;18.09;100.00
63665;BME280;49820;33.966;73.390;2023-06-26T13:38:57;78509.53;;;17.97;100.00
63665;BME280;49820;33.966;73.390;2023-06-26T13:41:25;78509.97;;;18.02;100.00
63665;BME280;49820;33.966;73.390;2023-06-26T13:43:56;78521.88;;;18.07;100.00
63665;BME280;49820;33.966;73.390;2023-06-26T13:46:42;78524.44;;;17.83;100.00
63665;BME280;49820;33.966;73.390;2023-06-26T13:49:11;78521.16;;;17.81;100.00
63665;BME280;49820;33.966;73.390;2023-06-26T13:51:40;78534.06;;;17.93;100.00
63665;BME280;49820;33.966;73.390;2023-06-26T13:54:13;78536.56;;;17.97;100.00
63665;BME280;49820;33.966;73.390;2023-06-26T13:56:43;78547.69;;;17.91;100.00
63665;BME280;49820;33.966;73.390;2023-06-26T13:59:11;78549.25;;;17.73;100.00
63665;BME280;49820;33.966;73.390;2023-06-26T14:01:40;78556.31;;;17.81;100.00
63665;BME280;49820;33.966;73.390;2023-06-26T14:04:12;78541.88;;;17.72;100.00
63665;BME280;49820;33.966;73.390;2023-06-26T14:06:41;78547.28;;;17.72;100.00
63665;BME280;49820;33.966;73.390;2023-06-26T14:09:10;78530.13;;;17.50;100.00
63665;BME280;49820;33.966;73.390;2023-06-26T14:11:39;78552.06;;;17.57;100.00
63665;BME280;49820;33.966;73.390;2023-06-26T14:14:10;78571.44;;;17.61;100.00
63665;BME280;49820;33.966;73.390;2023-06-26T14:16:40;78565.38;;;17.61;100.00
63665;BME280;49820;33.966;73.390;2023-06-26T14:19:11;78527.44;;;17.35;100.00
63665;BME280;49820;33.966;73.390;2023-06-26T14:21:43;78565.38;;;17.61;100.00
63665;BME280;49820;33.966;73.390;2023-06-26T14:24:13;78555.34;;;17.59;100.00
63665;BME280;49820;33.966;73.390;2023-06-26T14:26:42;78553.22;;;17.47;100.00
63665;BME280;49820;33.966;73.390;2023-06-26T14:29:11;78475.03;;;16.75;100.00
63665;BME280;49820;33.966;73.390;2023-06-26T14:31:41;78574.47;;;17.40;100.00
